Time;durP1;ratioP1;P1;durP2;ratioP2;P2;SDS_P1;SDS_P2;PMS_P1;PMS_P2;Temp;Humidity;BMP_temperature;BMP_pressure;BME280_temperature;BME280_humidity;BME280_pressure;Samples;Min_cycle;Max_cycle;Signal;HPM_P1;HPM_P2
2023/03/29 00:01:17;;;;;;;14.70;7.78;;;;;;;;;;6218163;23;20004;-60
2023/03/29 00:03:44;;;;;;;14.30;8.05;;;;;;;;;;6218094;23;20044;-60
2023/03/29 00:06:13;;;;;;;16.42;7.93;;;;;;;;;;6218114;23;20008;-60
2023/03/29 00:08:40;;;;;;;11.27;7.25;;;;;;;;;;6218092;23;20008;-60
2023/03/29 00:11:06;;;;;;;9.77;6.15;;;;;;;;;;6191220;23;20000;-60
2023/03/29 00:13:31;;;;;;;9.63;5.47;;;;;;;;;;6217975;23;20012;-60
2023/03/29 00:15:57;;;;;;;8.52;5.78;;;;;;;;;;6218427;23;20087;-60
2023/03/29 00:18:23;;;;;;;10.23;6.05;;;;;;;;;;6218005;23;19996;-60
2023/03/29 00:20:55;;;;;;;9.93;6.30;;;;;;;;;;6218516;23;20005;-60
2023/03/29 00:23:21;;;;;;;8.38;5.55;;;;;;;;;;6218373;23;20325;-60
2023/03/29 00:25:47;;;;;;;8.10;5.28;;;;;;;;;;6191980;23;20004;-61
2023/03/29 00:28:13;;;;;;;8.23;5.45;;;;;;;;;;6218019;23;20012;-61
2023/03/29 00:30:39;;;;;;;10.40;6.13;;;;;;;;;;6191035;23;20075;-61
2023/03/29 00:33:04;;;;;;;10.18;6.05;;;;;;;;;;6217493;23;20047;-61
2023/03/29 00:35:30;;;;;;;11.73;6.35;;;;;;;;;;6217948;23;19990;-61
2023/03/29 00:37:56;;;;;;;16.27;7.65;;;;;;;;;;6190892;23;20448;-61
2023/03/29 00:40:22;;;;;;;26.38;13.40;;;;;;;;;;6190946;23;20005;-61
2023/03/29 00:42:47;;;;;;;15.65;8.27;;;;;;;;;;6190847;23;20387;-61
2023/03/29 00:45:17;;;;;;;40.25;16.35;;;;;;;;;;6218430;23;20013;-60
2023/03/29 00:47:50;;;;;;;23.23;11.68;;;;;;;;;;6213323;23;20025;-60
2023/03/29 00:50:21;;;;;;;16.77;8.90;;;;;;;;;;6217479;23;20011;-56
2023/03/29 00:53:08;;;;;;;15.52;7.88;;;;;;;;;;6217812;23;20013;-56
2023/03/29 00:56:03;;;;;;;11.30;6.53;;;;;;;;;;6217470;23;20004;-56
2023/03/29 00:58:50;;;;;;;9.50;5.60;;;;;;;;;;6214614;23;20004;-57
2023/03/29 01:01:27;;;;;;;10.50;5.90;;;;;;;;;;6190486;23;20007;-57
2023/03/29 01:03:57;;;;;;;8.18;5.13;;;;;;;;;;6191311;23;20467;-57
2023/03/29 01:06:23;;;;;;;10.30;5.70;;;;;;;;;;6191357;23;20012;-58
2023/03/29 01:08:58;;;;;;;9.95;5.60;;;;;;;;;;6190643;23;20428;-57
2023/03/29 01:11:44;;;;;;;13.80;7.65;;;;;;;;;;6190671;23;20012;-56
2023/03/29 01:14:18;;;;;;;11.57;7.18;;;;;;;;;;6165515;23;20058;-56
2023/03/29 01:16:45;;;;;;;16.90;9.93;;;;;;;;;;6166564;23;20086;-57
2023/03/29 01:19:12;;;;;;;8.15;6.18;;;;;;;;;;6191052;23;20001;-56
2023/03/29 01:21:54;;;;;;;15.10;8.20;;;;;;;;;;6190571;23;20425;-56
2023/03/29 01:24:40;;;;;;;11.70;7.07;;;;;;;;;;6217077;23;20005;-57
2023/03/29 01:27:12;;;;;;;11.27;7.15;;;;;;;;;;6217454;23;20063;-56
2023/03/29 01:29:38;;;;;;;11.18;6.85;;;;;;;;;;6217380;23;20011;-56
2023/03/29 01:32:10;;;;;;;13.65;6.90;;;;;;;;;;6217665;23;20063;-56
2023/03/29 01:34:56;;;;;;;13.85;8.23;;;;;;;;;;6191531;23;20381;-58
2023/03/29 01:37:33;;;;;;;16.52;8.40;;;;;;;;;;6216904;23;20084;-57
2023/03/29 01:39:59;;;;;;;14.23;8.05;;;;;;;;;;6217863;23;20058;-57
2023/03/29 01:42:39;;;;;;;10.40;6.18;;;;;;;;;;6190328;23;20058;-56
2023/03/29 01:45:14;;;;;;;11.90;6.18;;;;;;;;;;6216923;23;20429;-57
2023/03/29 01:47:42;;;;;;;11.43;6.35;;;;;;;;;;6180438;23;20009;-57
2023/03/29 01:50:26;;;;;;;10.88;6.22;;;;;;;;;;6187289;23;20009;-57
2023/03/29 01:52:55;;;;;;;15.52;6.50;;;;;;;;;;6187438;23;20009;-57
2023/03/29 01:55:25;;;;;;;11.00;6.13;;;;;;;;;;6187773;23;19993;-57
2023/03/29 01:57:51;;;;;;;10.50;6.35;;;;;;;;;;6187119;23;20436;-56
2023/03/29 02:00:23;;;;;;;12.18;6.60;;;;;;;;;;6187583;23;20080;-56
2023/03/29 02:02:50;;;;;;;11.00;6.15;;;;;;;;;;6161092;23;20099;-56
2023/03/29 02:05:18;;;;;;;10.73;6.30;;;;;;;;;;6160610;23;20016;-56
2023/03/29 02:07:45;;;;;;;12.95;7.25;;;;;;;;;;6160300;23;20013;-56
2023/03/29 02:10:11;;;;;;;11.85;6.28;;;;;;;;;;6136550;23;20001;-57
2023/03/29 02:12:36;;;;;;;11.48;6.15;;;;;;;;;;6186936;23;20019;-56
2023/03/29 02:15:03;;;;;;;7.88;5.88;;;;;;;;;;6186488;23;20298;-56
2023/03/29 02:17:29;;;;;;;10.60;5.80;;;;;;;;;;6191506;23;20170;-56
2023/03/29 02:20:16;;;;;;;12.13;6.15;;;;;;;;;;6155534;23;20041;-61
2023/03/29 02:22:57;;;;;;;11.55;6.00;;;;;;;;;;6156923;23;20141;-61
2023/03/29 02:25:23;;;;;;;11.02;6.15;;;;;;;;;;6156812;23;20009;-61
2023/03/29 02:27:50;;;;;;;10.30;5.80;;;;;;;;;;6180691;23;20009;-61
2023/03/29 02:30:17;;;;;;;9.30;6.13;;;;;;;;;;6180460;23;20080;-61
2023/03/29 02:32:58;;;;;;;9.98;6.05;;;;;;;;;;6156571;23;20044;-61
2023/03/29 02:35:35;;;;;;;13.27;7.20;;;;;;;;;;6156367;23;20029;-61
2023/03/29 02:38:03;;;;;;;13.10;7.38;;;;;;;;;;6156415;23;20010;-61
2023/03/29 02:40:31;;;;;;;14.75;8.35;;;;;;;;;;6155836;23;20080;-61
2023/03/29 02:42:57;;;;;;;15.23;7.32;;;;;;;;;;6153826;23;20005;-61
2023/03/29 02:45:24;;;;;;;14.85;8.75;;;;;;;;;;6155789;23;20450;-61
2023/03/29 02:47:51;;;;;;;30.63;17.52;;;;;;;;;;6155155;23;19997;-61
2023/03/29 02:50:18;;;;;;;26.85;15.70;;;;;;;;;;6155632;23;20020;-61
2023/03/29 02:52:48;;;;;;;25.70;14.35;;;;;;;;;;6155169;23;20072;-61
2023/03/29 02:55:15;;;;;;;23.00;11.40;;;;;;;;;;6155336;23;20009;-61
2023/03/29 02:57:42;;;;;;;17.38;9.73;;;;;;;;;;6155433;23;20480;-61
2023/03/29 03:00:09;;;;;;;17.83;9.98;;;;;;;;;;6155005;23;20002;-61
2023/03/29 03:02:36;;;;;;;16.70;9.77;;;;;;;;;;6154897;23;20006;-61
2023/03/29 03:05:02;;;;;;;20.10;11.98;;;;;;;;;;6154200;23;20430;-62
2023/03/29 03:07:28;;;;;;;18.70;11.35;;;;;;;;;;6154316;23;20056;-61
2023/03/29 03:09:54;;;;;;;18.35;11.68;;;;;;;;;;6152665;23;20026;-61
2023/03/29 03:12:19;;;;;;;17.92;10.13;;;;;;;;;;6155025;23;20013;-61
2023/03/29 03:14:47;;;;;;;25.60;11.90;;;;;;;;;;6156956;23;19989;-61
2023/03/29 03:17:12;;;;;;;24.38;15.20;;;;;;;;;;6154744;23;20002;-61
2023/03/29 03:19:38;;;;;;;23.73;12.00;;;;;;;;;;6130442;23;20056;-60
2023/03/29 03:22:04;;;;;;;21.05;12.40;;;;;;;;;;6157135;23;20017;-61
2023/03/29 03:24:31;;;;;;;20.17;11.75;;;;;;;;;;6179671;23;19993;-61
2023/03/29 03:26:57;;;;;;;20.70;12.68;;;;;;;;;;6154899;23;20473;-61
2023/03/29 03:29:27;;;;;;;18.17;10.35;;;;;;;;;;6178734;23;19993;-61
2023/03/29 03:32:24;;;;;;;19.02;10.80;;;;;;;;;;6107152;23;20017;-60
2023/03/29 03:34:58;;;;;;;19.77;13.07;;;;;;;;;;6166004;23;20097;-60
2023/03/29 03:37:26;;;;;;;22.30;11.40;;;;;;;;;;6130590;23;20064;-60
2023/03/29 03:39:52;;;;;;;20.60;9.90;;;;;;;;;;6154681;23;20310;-60
2023/03/29 03:42:18;;;;;;;15.77;9.48;;;;;;;;;;6154359;23;20010;-60
2023/03/29 03:44:44;;;;;;;22.02;10.32;;;;;;;;;;6154511;23;20014;-60
2023/03/29 03:47:29;;;;;;;19.15;11.05;;;;;;;;;;6155663;23;20021;-61
2023/03/29 03:49:57;;;;;;;19.88;10.57;;;;;;;;;;6154257;23;20009;-60
2023/03/29 03:52:25;;;;;;;19.35;9.98;;;;;;;;;;6131130;23;20011;-60
2023/03/29 03:54:50;;;;;;;20.20;10.60;;;;;;;;;;6156342;23;20098;-60
2023/03/29 03:57:38;;;;;;;20.02;10.45;;;;;;;;;;6155273;23;20006;-60
2023/03/29 04:00:18;;;;;;;24.70;11.52;;;;;;;;;;6155230;23;20425;-57
2023/03/29 04:02:49;;;;;;;23.92;11.82;;;;;;;;;;6155439;23;20441;-61
2023/03/29 04:05:23;;;;;;;19.90;11.98;;;;;;;;;;6156998;23;20005;-61
2023/03/29 04:07:49;;;;;;;19.30;10.98;;;;;;;;;;6154536;23;20014;-61
2023/03/29 04:10:17;;;;;;;23.63;11.82;;;;;;;;;;6172957;23;20020;-61
2023/03/29 04:13:05;;;;;;;26.33;12.48;;;;;;;;;;6181364;23;20435;-91
2023/03/29 04:15:40;;;;;;;21.70;12.20;;;;;;;;;;6165493;23;20087;-91
2023/03/29 04:18:08;;;;;;;28.90;15.45;;;;;;;;;;6166061;23;20012;-90
2023/03/29 04:20:40;;;;;;;31.80;16.65;;;;;;;;;;6167757;23;20092;-90
2023/03/29 04:23:05;;;;;;;39.10;18.83;;;;;;;;;;6177289;23;20328;-91
2023/03/29 04:25:31;;;;;;;35.60;17.08;;;;;;;;;;6164646;23;20067;-90
2023/03/29 04:27:56;;;;;;;53.13;29.48;;;;;;;;;;6190497;23;20016;-90
2023/03/29 04:30:40;;;;;;;30.77;15.75;;;;;;;;;;6194103;23;20067;-89
2023/03/29 04:33:13;;;;;;;27.38;15.45;;;;;;;;;;6189985;23;20012;-91
2023/03/29 04:35:42;;;;;;;27.67;15.93;;;;;;;;;;6165694;23;20084;-91
2023/03/29 04:38:12;;;;;;;26.65;15.30;;;;;;;;;;6167548;23;20001;-89
2023/03/29 04:40:46;;;;;;;26.95;15.38;;;;;;;;;;6167126;23;20047;-90
2023/03/29 04:43:33;;;;;;;27.42;15.02;;;;;;;;;;6168364;23;20007;-91
2023/03/29 04:46:33;;;;;;;31.30;15.70;;;;;;;;;;6188938;23;20004;-92
2023/03/29 04:49:34;;;;;;;26.02;14.88;;;;;;;;;;6173295;23;20004;-91
2023/03/29 04:55:09;;;;;;;25.75;13.93;;;;;;;;;;6184045;23;20619;-91
2023/03/29 04:57:44;;;;;;;22.08;13.13;;;;;;;;;;6167923;23;20004;-93
2023/03/29 05:00:26;;;;;;;27.10;15.75;;;;;;;;;;6168232;23;20007;-91
2023/03/29 05:03:13;;;;;;;34.40;18.10;;;;;;;;;;6195584;23;20023;-91
2023/03/29 05:05:48;;;;;;;34.58;17.73;;;;;;;;;;6191811;23;20012;-92
2023/03/29 05:08:14;;;;;;;36.65;17.38;;;;;;;;;;6166919;23;20007;-91
2023/03/29 05:11:02;;;;;;;33.38;16.13;;;;;;;;;;6196534;23;20439;-91
2023/03/29 05:13:30;;;;;;;33.20;15.50;;;;;;;;;;6161338;23;20049;-90
2023/03/29 05:15:55;;;;;;;31.35;16.08;;;;;;;;;;6137741;23;20012;-90
2023/03/29 05:18:21;;;;;;;33.67;17.05;;;;;;;;;;6136316;23;20001;-90
2023/03/29 05:20:46;;;;;;;33.10;16.45;;;;;;;;;;6136586;23;20063;-88
2023/03/29 05:23:19;;;;;;;31.73;15.98;;;;;;;;;;6136452;23;19993;-91
2023/03/29 05:26:22;;;;;;;28.42;15.77;;;;;;;;;;6169115;23;20678;-92
2023/03/29 05:28:51;;;;;;;28.17;15.82;;;;;;;;;;6160047;23;20011;-89
2023/03/29 05:31:17;;;;;;;38.55;16.45;;;;;;;;;;6135878;23;20084;-90
2023/03/29 05:34:06;;;;;;;36.83;18.00;;;;;;;;;;6137486;23;20024;-92
2023/03/29 05:36:44;;;;;;;36.55;19.95;;;;;;;;;;6161038;23;20040;-91
2023/03/29 05:42:11;;;;;;;44.15;23.65;;;;;;;;;;6119268;23;20032;-89
2023/03/29 05:45:32;;;;;;;;;;;;;;;;;;;;;
2023/03/29 05:47:58;;;;;;;63.75;32.28;;;;;;;;;;6170952;23;20005;-91
2023/03/29 05:50:29;;;;;;;51.85;25.75;;;;;;;;;;6136364;23;20487;-92
2023/03/29 05:52:54;;;;;;;44.45;22.42;;;;;;;;;;6161036;23;20005;-90
2023/03/29 05:55:22;;;;;;;45.50;23.25;;;;;;;;;;6136027;23;20368;-90
2023/03/29 05:57:50;;;;;;;58.47;39.92;;;;;;;;;;6112148;23;20005;-90
2023/03/29 06:00:22;;;;;;;57.53;38.15;;;;;;;;;;6160046;23;20444;-90
2023/03/29 06:02:49;;;;;;;56.17;31.92;;;;;;;;;;6159623;23;20009;-92
2023/03/29 06:05:15;;;;;;;57.38;31.77;;;;;;;;;;6160323;23;20036;-92
2023/03/29 06:07:56;;;;;;;67.40;35.78;;;;;;;;;;6159966;23;20009;-93
2023/03/29 06:10:41;;;;;;;73.00;37.35;;;;;;;;;;6160263;23;20040;-92
2023/03/29 06:13:27;;;;;;;79.00;39.15;;;;;;;;;;6139367;23;20067;-92
2023/03/29 06:15:53;;;;;;;57.35;30.75;;;;;;;;;;6134087;23;20336;-91
2023/03/29 06:18:19;;;;;;;44.65;25.15;;;;;;;;;;6134792;23;20056;-91
2023/03/29 06:20:49;;;;;;;40.28;21.85;;;;;;;;;;6159929;23;20009;-92
2023/03/29 06:23:21;;;;;;;41.08;23.10;;;;;;;;;;6160383;23;20051;-91
2023/03/29 06:25:46;;;;;;;41.65;22.75;;;;;;;;;;6135414;23;20012;-92
2023/03/29 06:28:13;;;;;;;41.28;20.90;;;;;;;;;;6136224;23;20004;-93
2023/03/29 06:30:38;;;;;;;41.50;21.92;;;;;;;;;;6136138;23;20012;-92
2023/03/29 06:33:07;;;;;;;40.45;21.33;;;;;;;;;;6135770;23;20009;-91
2023/03/29 06:35:56;;;;;;;36.05;21.02;;;;;;;;;;6164472;23;20506;-91
2023/03/29 06:38:27;;;;;;;35.28;20.10;;;;;;;;;;6161254;23;20001;-92
2023/03/29 06:40:59;;;;;;;35.30;20.23;;;;;;;;;;6161185;23;20001;-91
2023/03/29 06:43:25;;;;;;;42.30;22.80;;;;;;;;;;6160852;23;20005;-92
2023/03/29 06:46:07;;;;;;;40.80;22.02;;;;;;;;;;6160802;23;20048;-92
2023/03/29 06:48:43;;;;;;;34.95;18.45;;;;;;;;;;6160656;23;20005;-91
2023/03/29 06:51:10;;;;;;;36.13;19.27;;;;;;;;;;6135725;23;20031;-91
2023/03/29 06:53:37;;;;;;;32.10;18.85;;;;;;;;;;6160770;23;20092;-91
2023/03/29 06:56:07;;;;;;;36.10;19.48;;;;;;;;;;6134948;23;20044;-91
2023/03/29 06:58:39;;;;;;;36.13;21.17;;;;;;;;;;6161701;23;20067;-91
2023/03/29 07:01:23;;;;;;;39.88;21.73;;;;;;;;;;6164408;23;20399;-90
2023/03/29 07:03:56;;;;;;;32.20;18.83;;;;;;;;;;6137124;23;20012;-91
2023/03/29 07:06:28;;;;;;;32.05;16.83;;;;;;;;;;6160142;23;20049;-91
2023/03/29 07:08:58;;;;;;;29.40;17.58;;;;;;;;;;6135829;23;20067;-90
2023/03/29 07:11:38;;;;;;;20.75;12.68;;;;;;;;;;6163133;23;20028;-90
2023/03/29 07:14:16;;;;;;;23.90;14.37;;;;;;;;;;6141308;23;20052;-90
2023/03/29 07:16:45;;;;;;;19.92;12.73;;;;;;;;;;6160111;23;20225;-91
2023/03/29 07:19:16;;;;;;;20.08;10.98;;;;;;;;;;6161066;23;19993;-89
2023/03/29 07:21:53;;;;;;;24.27;14.75;;;;;;;;;;6162871;23;20009;-91
2023/03/29 07:24:22;;;;;;;20.48;12.32;;;;;;;;;;6160100;23;20008;-91
2023/03/29 07:26:48;;;;;;;27.15;15.75;;;;;;;;;;6135134;23;20326;-90
2023/03/29 07:29:15;;;;;;;26.10;15.68;;;;;;;;;;6135360;23;20001;-91
2023/03/29 07:31:42;;;;;;;19.65;11.38;;;;;;;;;;6135586;23;20060;-90
2023/03/29 07:34:30;;;;;;;16.20;10.07;;;;;;;;;;6163560;23;20458;-90
2023/03/29 07:36:56;;;;;;;16.20;9.32;;;;;;;;;;6159826;23;20005;-90
2023/03/29 07:39:22;;;;;;;14.80;9.15;;;;;;;;;;6159570;23;20331;-92
2023/03/29 07:42:08;;;;;;;11.43;7.78;;;;;;;;;;6163880;23;20044;-90
2023/03/29 07:44:34;;;;;;;10.88;6.00;;;;;;;;;;6184682;23;20005;-89
2023/03/29 07:47:04;;;;;;;9.43;6.10;;;;;;;;;;6159851;23;20001;-90
2023/03/29 07:49:30;;;;;;;8.75;6.10;;;;;;;;;;6159384;23;19997;-90
2023/03/29 07:51:55;;;;;;;9.88;5.72;;;;;;;;;;6159750;23;20001;-90
2023/03/29 07:54:21;;;;;;;9.10;6.05;;;;;;;;;;6134967;23;20012;-90
2023/03/29 07:57:06;;;;;;;6.38;4.55;;;;;;;;;;6163416;23;20013;-89
2023/03/29 07:59:39;;;;;;;6.35;4.60;;;;;;;;;;6161209;23;19993;-90
2023/03/29 08:02:18;;;;;;;6.80;4.95;;;;;;;;;;6137718;23;20001;-89
2023/03/29 08:04:45;;;;;;;8.75;5.50;;;;;;;;;;6160017;23;20056;-90
2023/03/29 08:07:14;;;;;;;6.88;4.93;;;;;;;;;;6160413;23;20005;-89
2023/03/29 08:10:00;;;;;;;6.30;4.30;;;;;;;;;;6125475;23;20009;-89
2023/03/29 08:12:39;;;;;;;7.78;4.85;;;;;;;;;;6138758;23;20020;-90
2023/03/29 08:15:05;;;;;;;5.70;4.32;;;;;;;;;;6136592;23;20080;-89
2023/03/29 08:17:33;;;;;;;5.53;3.40;;;;;;;;;;6161179;23;20005;-90
2023/03/29 08:20:00;;;;;;;3.90;3.13;;;;;;;;;;6137006;23;20385;-90
2023/03/29 08:22:25;;;;;;;6.95;3.38;;;;;;;;;;6136713;23;20005;-89
2023/03/29 08:25:06;;;;;;;4.45;3.38;;;;;;;;;;6164793;23;20005;-90
2023/03/29 08:27:37;;;;;;;3.55;3.25;;;;;;;;;;6137835;23;20001;-89
2023/03/29 08:30:04;;;;;;;5.72;3.97;;;;;;;;;;6136916;23;20335;-90
2023/03/29 08:32:31;;;;;;;4.40;3.80;;;;;;;;;;6137152;23;20068;-89
2023/03/29 08:34:56;;;;;;;6.15;3.88;;;;;;;;;;6137052;23;20009;-90
2023/03/29 08:37:35;;;;;;;3.47;3.17;;;;;;;;;;6139288;23;19997;-91
2023/03/29 08:40:01;;;;;;;5.55;4.13;;;;;;;;;;6136726;23;20001;-89
2023/03/29 08:42:32;;;;;;;4.05;3.60;;;;;;;;;;6160907;23;20047;-90
2023/03/29 08:45:01;;;;;;;5.50;3.25;;;;;;;;;;6136896;23;20037;-90
2023/03/29 08:47:30;;;;;;;3.70;2.83;;;;;;;;;;6136196;23;20001;-90
2023/03/29 08:49:56;;;;;;;4.65;3.78;;;;;;;;;;6136555;23;20005;-90
2023/03/29 08:52:55;;;;;;;6.38;3.30;;;;;;;;;;6137990;23;20028;-89
2023/03/29 08:55:42;;;;;;;4.65;4.18;;;;;;;;;;6165138;23;20028;-89
2023/03/29 08:58:28;;;;;;;6.25;4.40;;;;;;;;;;6164829;23;20015;-91
2023/03/29 09:00:59;;;;;;;6.50;4.40;;;;;;;;;;6136584;23;20001;-89
2023/03/29 09:03:46;;;;;;;5.55;3.83;;;;;;;;;;6136936;23;20005;-90
2023/03/29 09:06:19;;;;;;;3.00;2.67;;;;;;;;;;6138027;23;20016;-90
2023/03/29 09:08:46;;;;;;;4.90;3.90;;;;;;;;;;6136344;23;20075;-90
2023/03/29 09:11:27;;;;;;;5.82;3.83;;;;;;;;;;6135933;23;20001;-90
2023/03/29 09:14:11;;;;;;;5.95;3.60;;;;;;;;;;6135862;23;20044;-90
2023/03/29 09:16:45;;;;;;;5.20;4.07;;;;;;;;;;6160811;23;20039;-89
2023/03/29 09:19:33;;;;;;;5.45;3.75;;;;;;;;;;6136758;23;20087;-90
2023/03/29 09:22:19;;;;;;;7.03;3.97;;;;;;;;;;6160770;23;20008;-91
2023/03/29 09:24:47;;;;;;;5.22;3.65;;;;;;;;;;6136142;23;20463;-90
2023/03/29 09:27:22;;;;;;;3.67;3.35;;;;;;;;;;6161602;23;20005;-89
2023/03/29 09:30:10;;;;;;;4.93;3.88;;;;;;;;;;6137250;23;20025;-91
2023/03/29 09:32:52;;;;;;;7.28;3.67;;;;;;;;;;6139467;23;20016;-90
2023/03/29 09:35:22;;;;;;;;;;;;;;;;;;6161119;23;20028;-90
2023/03/29 09:37:50;;;;;;;3.67;3.35;;;;;;;;;;6161223;23;19904;-90
2023/03/29 09:40:18;;;;;;;6.65;4.07;;;;;;;;;;6136090;23;20009;-90
2023/03/29 09:43:03;;;;;;;5.85;3.80;;;;;;;;;;6160896;23;20005;-90
2023/03/29 09:45:29;;;;;;;6.28;3.92;;;;;;;;;;6135667;23;20020;-90
2023/03/29 09:48:01;;;;;;;4.00;2.75;;;;;;;;;;6135552;23;20001;-91
2023/03/29 09:50:35;;;;;;;3.03;2.80;;;;;;;;;;6136716;23;20016;-90
2023/03/29 09:53:04;;;;;;;4.88;3.42;;;;;;;;;;6160611;23;20013;-92
2023/03/29 09:55:32;;;;;;;4.90;3.00;;;;;;;;;;6136616;23;20443;-91
2023/03/29 09:58:26;;;;;;;4.32;3.20;;;;;;;;;;6114211;23;20440;-91
2023/03/29 10:00:57;;;;;;;6.22;3.10;;;;;;;;;;6160639;23;20420;-90
2023/03/29 10:03:23;;;;;;;3.40;2.85;;;;;;;;;;6160477;23;20016;-90
2023/03/29 10:05:58;;;;;;;5.22;3.17;;;;;;;;;;6137556;23;20001;-90
2023/03/29 10:08:34;;;;;;;2.90;2.67;;;;;;;;;;6135687;23;20005;-91
2023/03/29 10:11:18;;;;;;;4.80;3.50;;;;;;;;;;6160649;23;20004;-89
2023/03/29 10:13:46;;;;;;;3.85;2.92;;;;;;;;;;6135540;23;20013;-91
2023/03/29 10:16:20;;;;;;;3.13;2.83;;;;;;;;;;6135794;23;20001;-90
2023/03/29 10:18:46;;;;;;;3.20;2.88;;;;;;;;;;6160319;23;20068;-90
2023/03/29 10:21:14;;;;;;;4.15;2.88;;;;;;;;;;6136021;23;20025;-91
2023/03/29 10:23:40;;;;;;;4.63;2.83;;;;;;;;;;6160354;23;20009;-90
2023/03/29 10:26:06;;;;;;;4.00;2.58;;;;;;;;;;6159541;23;20080;-92
2023/03/29 10:28:33;;;;;;;2.83;2.53;;;;;;;;;;6160003;23;20320;-90
2023/03/29 10:31:00;;;;;;;3.20;2.45;;;;;;;;;;6159942;23;20005;-90
2023/03/29 10:33:30;;;;;;;2.65;2.17;;;;;;;;;;6159815;23;20420;-90
2023/03/29 10:36:05;;;;;;;2.17;1.88;;;;;;;;;;6160092;23;20012;-90
2023/03/29 10:38:30;;;;;;;2.95;1.95;;;;;;;;;;6160233;23;20005;-90
2023/03/29 10:41:06;;;;;;;3.60;2.80;;;;;;;;;;6135484;23;20089;-90
2023/03/29 10:43:36;;;;;;;3.20;1.75;;;;;;;;;;6160207;23;20009;-90
2023/03/29 10:46:10;;;;;;;2.95;1.92;;;;;;;;;;6160392;23;20004;-90
2023/03/29 10:48:35;;;;;;;2.70;2.05;;;;;;;;;;6160090;23;20080;-90
2023/03/29 10:51:02;;;;;;;2.03;1.83;;;;;;;;;;6159598;23;20044;-91
2023/03/29 10:53:31;;;;;;;2.38;2.20;;;;;;;;;;6135542;23;20009;-90
2023/03/29 10:56:16;;;;;;;2.83;2.10;;;;;;;;;;6151059;23;20465;-90
2023/03/29 10:58:50;;;;;;;4.55;1.95;;;;;;;;;;6135276;23;20036;-89
2023/03/29 11:01:39;;;;;;;2.25;1.38;;;;;;;;;;6159870;23;20439;-90
2023/03/29 11:04:14;;;;;;;2.83;1.92;;;;;;;;;;6145434;23;20009;-87
2023/03/29 11:06:43;;;;;;;2.35;1.85;;;;;;;;;;6160190;23;20013;-87
2023/03/29 11:09:34;;;;;;;4.22;1.73;;;;;;;;;;6159653;23;20005;-88
2023/03/29 11:12:08;;;;;;;2.67;2.00;;;;;;;;;;6134787;23;20006;-88
2023/03/29 11:14:36;;;;;;;2.72;2.30;;;;;;;;;;6159926;23;20096;-88
2023/03/29 11:17:11;;;;;;;5.70;2.67;;;;;;;;;;6160103;23;20036;-88
2023/03/29 11:19:43;;;;;;;2.85;1.30;;;;;;;;;;6160208;23;20005;-88
2023/03/29 11:22:21;;;;;;;3.50;2.35;;;;;;;;;;6159837;23;20005;-89
2023/03/29 11:24:56;;;;;;;2.75;2.03;;;;;;;;;;6135407;23;19998;-87
2023/03/29 11:27:31;;;;;;;3.95;2.20;;;;;;;;;;6160114;23;20321;-88
2023/03/29 11:30:12;;;;;;;2.35;1.83;;;;;;;;;;6135352;23;20001;-89
2023/03/29 11:32:43;;;;;;;1.50;1.40;;;;;;;;;;6135176;23;20040;-88
2023/03/29 11:35:17;;;;;;;2.47;1.65;;;;;;;;;;6134907;23;20009;-88
2023/03/29 11:37:46;;;;;;;5.35;2.05;;;;;;;;;;6135147;23;20005;-87
2023/03/29 11:40:27;;;;;;;4.05;2.30;;;;;;;;;;6135249;23;20432;-88
2023/03/29 11:42:54;;;;;;;4.47;2.03;;;;;;;;;;6135469;23;20028;-87
2023/03/29 11:45:29;;;;;;;2.20;1.85;;;;;;;;;;6135676;23;19998;-87
2023/03/29 11:47:55;;;;;;;4.07;2.17;;;;;;;;;;6137006;23;19997;-88
2023/03/29 11:50:24;;;;;;;2.80;1.70;;;;;;;;;;6137361;23;20444;-88
2023/03/29 11:53:00;;;;;;;5.25;3.08;;;;;;;;;;6137049;23;20013;-88
2023/03/29 11:55:44;;;;;;;2.83;2.15;;;;;;;;;;6161882;23;20005;-88
2023/03/29 11:58:28;;;;;;;3.22;2.17;;;;;;;;;;6137163;23;20005;-88
2023/03/29 12:00:56;;;;;;;3.95;2.28;;;;;;;;;;6137189;23;20009;-87
2023/03/29 12:03:44;;;;;;;3.55;2.15;;;;;;;;;;6136774;23;20001;-88
2023/03/29 12:06:13;;;;;;;6.90;2.85;;;;;;;;;;6161469;23;20005;-88
2023/03/29 12:08:42;;;;;;;2.85;2.15;;;;;;;;;;6137191;23;20375;-87
2023/03/29 12:11:17;;;;;;;2.35;2.13;;;;;;;;;;6136898;23;20353;-89
2023/03/29 12:13:54;;;;;;;3.05;2.08;;;;;;;;;;6136510;23;20024;-87
2023/03/29 12:16:23;;;;;;;2.53;1.80;;;;;;;;;;6161650;23;20012;-87
2023/03/29 12:18:49;;;;;;;4.93;2.30;;;;;;;;;;6143708;23;20005;-88
2023/03/29 12:21:20;;;;;;;3.47;1.92;;;;;;;;;;6136883;23;20027;-88
2023/03/29 12:23:46;;;;;;;3.70;2.03;;;;;;;;;;6137051;23;20063;-88
2023/03/29 12:26:32;;;;;;;4.07;1.80;;;;;;;;;;6136803;23;20005;-87
2023/03/29 12:28:57;;;;;;;1.83;1.58;;;;;;;;;;6136772;23;20002;-88
2023/03/29 12:31:30;;;;;;;2.47;1.58;;;;;;;;;;6161520;23;20096;-88
2023/03/29 12:34:01;;;;;;;3.13;2.28;;;;;;;;;;6136607;23;20008;-88
2023/03/29 12:36:53;;;;;;;2.17;1.95;;;;;;;;;;6142026;23;20013;-89
2023/03/29 12:39:52;;;;;;;2.97;1.90;;;;;;;;;;6119617;23;20063;-88
2023/03/29 12:42:42;;;;;;;2.47;1.90;;;;;;;;;;6165253;23;20020;-87
2023/03/29 12:45:47;;;;;;;4.63;2.83;;;;;;;;;;6050672;23;20398;-87
2023/03/29 12:48:21;;;;;;;4.60;2.97;;;;;;;;;;6139216;23;20380;-88
2023/03/29 12:50:51;;;;;;;2.30;1.98;;;;;;;;;;6136417;23;20031;-88
2023/03/29 12:53:19;;;;;;;2.70;1.88;;;;;;;;;;6161120;23;20332;-87
2023/03/29 12:55:49;;;;;;;3.83;1.48;;;;;;;;;;6186243;23;20060;-88
2023/03/29 12:58:24;;;;;;;2.03;1.55;;;;;;;;;;6136084;23;20009;-88
2023/03/29 13:01:05;;;;;;;3.47;2.08;;;;;;;;;;6161673;23;20051;-87
2023/03/29 13:03:30;;;;;;;;;;;;;;;;;;6137525;23;20016;-88
2023/03/29 13:06:01;;;;;;;2.55;1.98;;;;;;;;;;6161186;23;19908;-88
2023/03/29 13:08:34;;;;;;;1.48;1.33;;;;;;;;;;6161465;23;20001;-87
2023/03/29 13:11:00;;;;;;;2.90;1.70;;;;;;;;;;6135960;23;19997;-88
2023/03/29 13:13:36;;;;;;;2.10;1.63;;;;;;;;;;6160821;23;20462;-87
2023/03/29 13:16:09;;;;;;;1.85;1.70;;;;;;;;;;6136570;23;20067;-88
2023/03/29 13:18:47;;;;;;;1.38;1.27;;;;;;;;;;6136156;23;20051;-87
2023/03/29 13:21:31;;;;;;;3.28;1.65;;;;;;;;;;6136815;23;20005;-88
2023/03/29 13:24:15;;;;;;;2.25;1.63;;;;;;;;;;6136519;23;20040;-88
2023/03/29 13:26:54;;;;;;;6.05;1.98;;;;;;;;;;6136483;23;20031;-88
2023/03/29 13:29:19;;;;;;;2.72;1.67;;;;;;;;;;6136167;23;20027;-88
2023/03/29 13:32:15;;;;;;;1.88;1.58;;;;;;;;;;6136438;23;20328;-87
2023/03/29 13:34:45;;;;;;;2.90;2.08;;;;;;;;;;6056487;23;20012;-88
2023/03/29 13:37:16;;;;;;;1.73;1.48;;;;;;;;;;6136409;23;20451;-87
2023/03/29 13:39:50;;;;;;;3.28;1.58;;;;;;;;;;6160943;23;20001;-88
2023/03/29 13:42:24;;;;;;;4.95;2.15;;;;;;;;;;6136146;23;20043;-88
2023/03/29 13:44:50;;;;;;;3.17;2.15;;;;;;;;;;6136331;23;20048;-88
2023/03/29 13:47:24;;;;;;;2.90;2.63;;;;;;;;;;6136302;23;20356;-87
2023/03/29 13:49:52;;;;;;;2.90;2.28;;;;;;;;;;6136280;23;20040;-87
2023/03/29 13:52:32;;;;;;;3.15;2.20;;;;;;;;;;6160714;23;20424;-88
2023/03/29 13:55:20;;;;;;;1.60;1.50;;;;;;;;;;6133379;23;20013;-88
2023/03/29 13:57:51;;;;;;;4.53;3.08;;;;;;;;;;6145324;23;20005;-88
2023/03/29 14:00:35;;;;;;;2.35;2.05;;;;;;;;;;6136332;23;20589;-89
2023/03/29 14:03:06;;;;;;;2.20;1.70;;;;;;;;;;6135356;23;20432;-88
2023/03/29 14:08:56;;;;;;;;;;;;;;;;;;;;;
2023/03/29 14:11:24;;;;;;;4.72;2.92;;;;;;;;;;6162004;23;20001;-90
2023/03/29 14:14:00;;;;;;;5.25;2.40;;;;;;;;;;6135204;23;20017;-91
2023/03/29 14:16:27;;;;;;;4.15;2.20;;;;;;;;;;6135878;23;20463;-90
2023/03/29 14:19:11;;;;;;;2.00;1.83;;;;;;;;;;6160489;23;20009;-93
2023/03/29 14:22:01;;;;;;;5.60;2.78;;;;;;;;;;6163411;23;20016;-88
2023/03/29 14:24:36;;;;;;;3.35;2.05;;;;;;;;;;6160326;23;20039;-89
2023/03/29 14:27:03;;;;;;;3.25;1.67;;;;;;;;;;6135314;23;20001;-88
2023/03/29 14:29:29;;;;;;;6.03;4.18;;;;;;;;;;6135192;23;19997;-89
2023/03/29 14:31:55;;;;;;;2.45;1.52;;;;;;;;;;6134681;23;20002;-88
2023/03/29 14:34:21;;;;;;;1.38;1.13;;;;;;;;;;6159856;23;19997;-90
2023/03/29 14:36:52;;;;;;;4.25;1.75;;;;;;;;;;6135001;23;20009;-87
2023/03/29 14:39:19;;;;;;;2.00;1.77;;;;;;;;;;6135669;23;20028;-88
2023/03/29 14:41:50;;;;;;;3.28;1.92;;;;;;;;;;6159970;23;20036;-88
2023/03/29 14:44:17;;;;;;;3.92;1.90;;;;;;;;;;6135399;23;20009;-88
2023/03/29 14:46:43;;;;;;;3.10;1.75;;;;;;;;;;6160253;23;20029;-89
2023/03/29 14:49:11;;;;;;;1.95;1.63;;;;;;;;;;6158823;23;20088;-87
2023/03/29 14:51:39;;;;;;;4.22;2.30;;;;;;;;;;6159895;23;20468;-88
2023/03/29 14:54:05;;;;;;;4.20;2.25;;;;;;;;;;6159654;23;20371;-88
2023/03/29 14:56:31;;;;;;;17.25;8.13;;;;;;;;;;6159470;23;20092;-88
2023/03/29 14:58:57;;;;;;;17.40;6.93;;;;;;;;;;6160005;23;20308;-89
2023/03/29 15:01:24;;;;;;;20.25;6.78;;;;;;;;;;6159896;23;20555;-87
2023/03/29 15:03:55;;;;;;;6.95;3.92;;;;;;;;;;6135330;23;20013;-89
2023/03/29 15:06:20;;;;;;;;;;;;;;;;;;6135540;23;20017;-89
2023/03/29 15:08:47;;;;;;;4.32;2.33;;;;;;;;;;6159654;23;19900;-88
2023/03/29 15:11:14;;;;;;;3.88;3.47;;;;;;;;;;6135241;23;20015;-89
2023/03/29 15:13:44;;;;;;;5.07;3.92;;;;;;;;;;6159201;23;20020;-89
2023/03/29 15:16:13;;;;;;;7.68;5.35;;;;;;;;;;6135868;23;20027;-89
2023/03/29 15:18:40;;;;;;;4.47;3.35;;;;;;;;;;6134613;23;20016;-89